createdAt,value
2022-07-30T00:00:08.315Z,0.00
2022-07-30T00:01:08.369Z,0.00
2022-07-30T00:02:08.318Z,0.00
2022-07-30T00:03:08.283Z,0.00
2022-07-30T00:04:08.311Z,0.00
2022-07-30T00:05:08.261Z,0.00
2022-07-30T00:06:08.256Z,0.00
2022-07-30T00:07:08.238Z,0.00
2022-07-30T00:08:08.249Z,0.00
2022-07-30T00:09:08.223Z,0.00
2022-07-30T00:10:08.201Z,0.00
2022-07-30T00:11:08.191Z,0.00
2022-07-30T00:12:08.185Z,0.00
2022-07-30T00:13:08.179Z,0.00
2022-07-30T00:14:08.209Z,0.00
2022-07-30T00:15:08.153Z,0.00
2022-07-30T00:16:08.150Z,0.00
2022-07-30T00:17:08.236Z,0.00
2022-07-30T00:18:08.114Z,0.00
2022-07-30T00:19:08.390Z,0.00
2022-07-30T00:20:08.094Z,0.00
2022-07-30T00:21:08.082Z,0.00
2022-07-30T00:22:08.066Z,0.00
2022-07-30T00:23:08.052Z,0.00
2022-07-30T00:24:08.055Z,0.00
2022-07-30T00:25:08.054Z,0.00
2022-07-30T00:26:08.032Z,0.00
2022-07-30T00:27:08.035Z,0.00
2022-07-30T00:28:08.009Z,0.00
2022-07-30T00:29:07.984Z,0.00
2022-07-30T00:30:07.984Z,0.00
2022-07-30T00:31:08.121Z,0.00
2022-07-30T00:32:08.001Z,0.00
2022-07-30T00:33:08.313Z,0.00
2022-07-30T00:34:07.958Z,0.00
2022-07-30T00:35:07.926Z,0.00
2022-07-30T00:36:07.934Z,0.00
2022-07-30T00:37:07.935Z,0.00
2022-07-30T00:38:07.901Z,0.00
2022-07-30T00:39:07.891Z,0.00
2022-07-30T00:40:07.876Z,0.00
2022-07-30T00:41:07.857Z,0.00
2022-07-30T00:42:07.876Z,0.00
2022-07-30T00:43:07.848Z,0.00
2022-07-30T00:44:07.822Z,0.00
2022-07-30T00:45:07.811Z,0.00
2022-07-30T00:46:07.855Z,0.00
2022-07-30T00:47:07.790Z,0.00
2022-07-30T00:48:07.803Z,0.00
2022-07-30T00:49:07.788Z,0.00
2022-07-30T00:50:07.757Z,0.00
2022-07-30T00:51:07.750Z,0.00
2022-07-30T00:52:07.743Z,0.00
2022-07-30T00:53:07.709Z,0.00
2022-07-30T00:54:07.749Z,0.00
2022-07-30T00:55:07.712Z,0.00
2022-07-30T00:56:07.686Z,0.00
2022-07-30T00:57:07.669Z,0.00
2022-07-30T00:58:07.649Z,0.00
2022-07-30T00:59:07.710Z,0.00
2022-07-30T01:00:07.641Z,0.00
2022-07-30T01:01:07.679Z,0.00
2022-07-30T01:02:07.697Z,0.00
2022-07-30T01:03:07.599Z,0.00
2022-07-30T01:04:07.584Z,0.00
2022-07-30T01:05:07.611Z,0.00
2022-07-30T01:06:14.097Z,0.00
2022-07-30T01:07:08.570Z,0.00
2022-07-30T01:08:07.564Z,0.00
2022-07-30T01:09:07.531Z,0.00
2022-07-30T01:10:07.538Z,0.00
2022-07-30T01:11:07.552Z,0.00
2022-07-30T01:12:07.497Z,0.00
2022-07-30T01:13:07.492Z,0.00
2022-07-30T01:14:07.485Z,0.00
2022-07-30T01:15:07.467Z,0.00
2022-07-30T01:16:07.506Z,0.00
2022-07-30T01:17:07.473Z,0.00
2022-07-30T01:18:07.422Z,0.00
2022-07-30T01:19:07.418Z,0.00
2022-07-30T01:20:08.176Z,0.00
2022-07-30T01:21:07.412Z,0.00
2022-07-30T01:22:07.384Z,0.00
2022-07-30T01:23:07.437Z,0.00
2022-07-30T01:24:07.376Z,0.00
2022-07-30T01:25:07.360Z,0.00
2022-07-30T01:26:07.380Z,0.00
2022-07-30T01:27:07.324Z,0.00
2022-07-30T01:28:07.346Z,0.00
2022-07-30T01:29:07.316Z,0.00
2022-07-30T01:30:07.299Z,0.00
2022-07-30T01:31:07.287Z,0.00
2022-07-30T01:32:07.350Z,0.00
2022-07-30T01:33:07.286Z,0.00
2022-07-30T01:34:07.268Z,0.00
2022-07-30T01:35:07.248Z,0.00
2022-07-30T01:36:07.233Z,0.00
2022-07-30T01:37:07.208Z,0.00
2022-07-30T01:38:07.208Z,0.00
2022-07-30T01:39:07.204Z,0.00
2022-07-30T01:40:07.201Z,0.00
2022-07-30T01:41:07.179Z,0.00
2022-07-30T01:42:07.149Z,0.00
2022-07-30T01:43:07.129Z,0.00
2022-07-30T01:44:07.129Z,0.00
2022-07-30T01:45:07.121Z,0.00
2022-07-30T01:46:07.216Z,0.00
2022-07-30T01:47:07.101Z,0.00
2022-07-30T01:48:07.069Z,0.00
2022-07-30T01:49:07.090Z,0.00
2022-07-30T01:50:07.049Z,0.00
2022-07-30T01:51:07.071Z,0.00
2022-07-30T01:52:07.062Z,0.00
2022-07-30T01:53:07.043Z,0.00
2022-07-30T01:54:07.011Z,0.00
2022-07-30T01:55:16.925Z,0.00
2022-07-30T01:56:10.698Z,0.00
2022-07-30T01:57:06.991Z,0.00
2022-07-30T01:58:06.976Z,0.00
2022-07-30T01:59:06.963Z,0.00
2022-07-30T02:00:06.940Z,0.00
2022-07-30T02:01:06.967Z,0.00
2022-07-30T02:02:06.934Z,0.00
2022-07-30T02:03:07.048Z,0.00
2022-07-30T02:04:06.925Z,0.00
2022-07-30T02:05:06.872Z,0.00
2022-07-30T02:06:06.884Z,0.00
2022-07-30T02:07:06.855Z,0.00
2022-07-30T02:08:06.854Z,0.00
2022-07-30T02:09:10.621Z,0.00
2022-07-30T02:10:06.834Z,0.00
2022-07-30T02:11:06.815Z,0.00
2022-07-30T02:12:06.804Z,0.00
2022-07-30T02:13:06.798Z,0.00
2022-07-30T02:14:06.795Z,0.00
2022-07-30T02:15:06.778Z,0.00
2022-07-30T02:16:06.794Z,0.00
2022-07-30T02:17:06.734Z,0.00
2022-07-30T02:18:06.725Z,0.00
2022-07-30T02:19:06.981Z,0.00
2022-07-30T02:20:09.726Z,0.00
2022-07-30T02:21:07.539Z,0.00
2022-07-30T02:22:06.862Z,0.00
2022-07-30T02:23:06.679Z,0.00
2022-07-30T02:24:06.647Z,0.00
2022-07-30T02:25:06.628Z,0.00
2022-07-30T02:26:06.684Z,0.00
2022-07-30T02:27:06.633Z,0.00
2022-07-30T02:28:06.619Z,0.00
2022-07-30T02:29:11.105Z,0.00
2022-07-30T02:30:06.641Z,0.00
2022-07-30T02:31:17.539Z,0.00
2022-07-30T02:32:07.606Z,0.00
2022-07-30T02:33:06.551Z,0.00
2022-07-30T02:34:06.530Z,0.00
2022-07-30T02:35:06.520Z,0.00
2022-07-30T02:36:11.203Z,0.00
2022-07-30T02:37:07.513Z,0.00
2022-07-30T02:38:06.517Z,0.00
2022-07-30T02:39:06.474Z,0.00
2022-07-30T02:40:06.473Z,0.00
2022-07-30T02:41:06.464Z,0.00
2022-07-30T02:42:06.443Z,0.00
2022-07-30T02:43:06.456Z,0.00
2022-07-30T02:44:06.416Z,0.00
2022-07-30T02:45:06.403Z,0.00
2022-07-30T02:46:06.392Z,0.00
2022-07-30T02:47:06.527Z,0.00
2022-07-30T02:48:06.386Z,0.00
2022-07-30T02:49:06.472Z,0.00
2022-07-30T02:50:06.366Z,0.00
2022-07-30T02:51:06.334Z,0.00
2022-07-30T02:52:06.325Z,0.00
2022-07-30T02:53:06.317Z,0.00
2022-07-30T02:54:06.333Z,0.00
2022-07-30T02:55:06.287Z,0.00
2022-07-30T02:56:06.278Z,0.00
2022-07-30T02:57:06.267Z,0.00
2022-07-30T02:58:06.247Z,0.00
2022-07-30T02:59:06.295Z,0.00
2022-07-30T03:00:06.240Z,0.00
2022-07-30T03:01:06.250Z,0.00
2022-07-30T03:02:06.276Z,0.00
2022-07-30T03:03:06.206Z,0.00
2022-07-30T03:04:06.185Z,0.00
2022-07-30T03:05:06.264Z,0.00
2022-07-30T03:06:06.177Z,0.00
2022-07-30T03:07:08.349Z,0.00
2022-07-30T03:08:06.136Z,0.00
2022-07-30T03:09:06.163Z,0.00
2022-07-30T03:10:06.137Z,0.00
2022-07-30T03:11:06.099Z,0.00
2022-07-30T03:12:06.081Z,0.00
2022-07-30T03:13:06.121Z,0.00
2022-07-30T03:14:06.079Z,0.00
2022-07-30T03:15:06.088Z,0.00
2022-07-30T03:16:06.111Z,0.00
2022-07-30T03:17:06.029Z,0.00
2022-07-30T03:18:06.018Z,0.00
2022-07-30T03:19:06.000Z,4.00
2022-07-30T03:20:06.005Z,4.00
2022-07-30T03:21:05.998Z,0.00
2022-07-30T03:22:05.960Z,0.00
2022-07-30T03:23:05.949Z,4.00
2022-07-30T03:24:05.950Z,4.00
2022-07-30T03:25:05.940Z,4.00
2022-07-30T03:26:05.941Z,8.00
2022-07-30T03:27:05.923Z,4.00
2022-07-30T03:28:05.902Z,8.00
2022-07-30T03:29:05.895Z,8.00
2022-07-30T03:30:05.871Z,8.00
2022-07-30T03:31:05.930Z,8.00
2022-07-30T03:32:05.885Z,12.00
2022-07-30T03:33:05.832Z,12.00
2022-07-30T03:34:06.420Z,16.00
2022-07-30T03:35:06.348Z,20.00
2022-07-30T03:36:05.813Z,20.00
2022-07-30T03:37:05.824Z,24.00
2022-07-30T03:38:05.805Z,28.00
2022-07-30T03:39:05.763Z,28.00
2022-07-30T03:40:05.757Z,36.00
2022-07-30T03:41:05.740Z,36.00
2022-07-30T03:42:05.752Z,40.00
2022-07-30T03:43:05.755Z,44.00
2022-07-30T03:44:06.727Z,52.00
2022-07-30T03:45:05.695Z,56.00
2022-07-30T03:46:05.755Z,60.00
2022-07-30T03:47:06.142Z,64.00
2022-07-30T03:48:05.666Z,76.00
2022-07-30T03:49:05.791Z,80.00
2022-07-30T03:50:05.650Z,88.00
2022-07-30T03:51:05.636Z,92.00
2022-07-30T03:52:05.617Z,104.00
2022-07-30T03:53:05.606Z,112.00
2022-07-30T03:54:05.633Z,120.00
2022-07-30T03:55:05.613Z,128.00
2022-07-30T03:56:05.579Z,140.00
2022-07-30T03:57:05.568Z,148.00
2022-07-30T03:58:05.617Z,156.00
2022-07-30T03:59:05.548Z,168.00
2022-07-30T04:00:05.574Z,180.00
2022-07-30T04:01:05.557Z,192.00
2022-07-30T04:02:06.831Z,204.00
2022-07-30T04:03:05.502Z,216.00
2022-07-30T04:04:05.594Z,232.00
2022-07-30T04:05:05.515Z,244.00
2022-07-30T04:06:05.474Z,260.00
2022-07-30T04:07:05.471Z,272.00
2022-07-30T04:08:05.440Z,284.00
2022-07-30T04:09:05.429Z,300.00
2022-07-30T04:10:05.505Z,312.00
2022-07-30T04:11:05.450Z,332.00
2022-07-30T04:12:05.398Z,348.00
2022-07-30T04:13:09.177Z,368.00
2022-07-30T04:14:05.381Z,380.00
2022-07-30T04:16:05.623Z,400.00
2022-07-30T04:16:41.247Z,412.00
2022-07-30T04:17:06.400Z,432.00
2022-07-30T04:18:05.349Z,448.00
2022-07-30T04:19:05.321Z,464.00
2022-07-30T04:20:05.321Z,484.00
2022-07-30T04:21:05.301Z,500.00
2022-07-30T04:22:05.311Z,516.00
2022-07-30T04:23:05.294Z,536.00
2022-07-30T04:24:05.720Z,552.00
2022-07-30T04:25:05.273Z,568.00
2022-07-30T04:26:05.252Z,584.00
2022-07-30T04:27:05.266Z,604.00
2022-07-30T04:28:05.222Z,624.00
2022-07-30T04:29:05.247Z,648.00
2022-07-30T04:30:05.205Z,672.00
2022-07-30T04:31:05.255Z,692.00
2022-07-30T04:32:05.184Z,712.00
2022-07-30T04:33:05.195Z,728.00
2022-07-30T04:34:05.154Z,752.00
2022-07-30T04:35:05.149Z,772.00
2022-07-30T04:36:05.143Z,800.00
2022-07-30T04:37:05.175Z,820.00
2022-07-30T04:38:05.135Z,848.00
2022-07-30T04:39:05.095Z,872.00
2022-07-30T04:40:05.088Z,900.00
2022-07-30T04:41:05.105Z,928.00
2022-07-30T04:42:05.060Z,968.00
2022-07-30T04:43:05.058Z,1004.00
2022-07-30T04:44:05.073Z,1060.00
2022-07-30T04:45:05.038Z,1108.00
2022-07-30T04:46:05.066Z,1152.00
2022-07-30T04:47:05.007Z,1196.00
2022-07-30T04:48:04.994Z,1244.00
2022-07-30T04:49:05.051Z,1284.00
2022-07-30T04:50:04.971Z,1320.00
2022-07-30T04:51:04.989Z,1368.00
2022-07-30T04:52:04.949Z,1424.00
2022-07-30T04:53:04.929Z,1472.00
2022-07-30T04:54:04.938Z,1524.00
2022-07-30T04:55:04.931Z,1568.00
2022-07-30T04:56:04.909Z,1612.00
2022-07-30T04:57:05.063Z,1652.00
2022-07-30T04:58:04.887Z,1696.00
2022-07-30T04:59:04.861Z,1720.00
2022-07-30T05:00:04.907Z,1728.00
2022-07-30T05:01:04.841Z,1752.00
2022-07-30T05:02:04.925Z,1800.00
2022-07-30T05:03:04.820Z,1812.00
2022-07-30T05:04:04.824Z,1832.00
2022-07-30T05:05:04.879Z,1900.00
2022-07-30T05:06:04.806Z,1940.00
2022-07-30T05:07:04.989Z,1960.00
2022-07-30T05:08:04.753Z,1972.00
2022-07-30T05:09:04.753Z,1916.00
2022-07-30T05:10:04.734Z,1884.00
2022-07-30T05:11:04.753Z,1996.00
2022-07-30T05:12:04.722Z,2040.00
2022-07-30T05:13:04.702Z,2068.00
2022-07-30T05:14:04.693Z,2088.00
2022-07-30T05:15:04.674Z,2112.00
2022-07-30T05:16:04.719Z,2132.00
2022-07-30T05:17:04.699Z,2148.00
2022-07-30T05:18:04.712Z,2164.00
2022-07-30T05:19:07.702Z,2180.00
2022-07-30T05:20:04.636Z,2184.00
2022-07-30T05:21:04.614Z,2196.00
2022-07-30T05:22:06.826Z,2220.00
2022-07-30T05:23:04.604Z,2240.00
2022-07-30T05:24:04.578Z,2260.00
2022-07-30T05:25:04.555Z,2276.00
2022-07-30T05:26:05.573Z,2296.00
2022-07-30T05:27:04.684Z,2308.00
2022-07-30T05:28:04.549Z,2344.00
2022-07-30T05:29:07.145Z,2360.00
2022-07-30T05:30:04.518Z,2388.00
2022-07-30T05:31:08.617Z,2448.00
2022-07-30T05:32:04.487Z,2484.00
2022-07-30T05:33:08.693Z,2512.00
2022-07-30T05:34:05.460Z,2548.00
2022-07-30T05:35:04.467Z,2564.00
2022-07-30T05:36:04.469Z,2580.00
2022-07-30T05:37:04.903Z,2612.00
2022-07-30T05:38:04.421Z,2644.00
2022-07-30T05:39:04.429Z,2676.00
2022-07-30T05:40:05.101Z,2708.00
2022-07-30T05:41:04.380Z,2764.00
2022-07-30T05:42:05.391Z,2808.00
2022-07-30T05:43:04.371Z,2856.00
2022-07-30T05:44:04.370Z,2900.00
2022-07-30T05:45:04.331Z,2924.00
2022-07-30T05:46:04.459Z,2980.00
2022-07-30T05:47:04.310Z,3044.00
2022-07-30T05:48:04.342Z,3084.00
2022-07-30T05:49:04.432Z,3140.00
2022-07-30T05:50:05.059Z,3184.00
2022-07-30T05:51:04.265Z,3212.00
2022-07-30T05:52:04.298Z,3240.00
2022-07-30T05:53:04.283Z,3280.00
2022-07-30T05:54:04.972Z,3312.00
2022-07-30T05:55:04.224Z,3340.00
2022-07-30T05:56:04.302Z,3376.00
2022-07-30T05:57:04.438Z,3400.00
2022-07-30T05:58:04.185Z,3444.00
2022-07-30T05:59:04.203Z,3480.00
2022-07-30T06:00:04.183Z,3532.00
2022-07-30T06:01:04.224Z,3568.00
2022-07-30T06:02:04.233Z,3584.00
2022-07-30T06:03:04.139Z,3612.00
2022-07-30T06:04:04.193Z,3644.00
2022-07-30T06:05:04.178Z,3660.00
2022-07-30T06:06:04.131Z,3672.00
2022-07-30T06:07:04.398Z,3680.00
2022-07-30T06:08:04.075Z,3680.00
2022-07-30T06:09:04.066Z,3692.00
2022-07-30T06:10:04.047Z,3708.00
2022-07-30T06:11:04.069Z,3732.00
2022-07-30T06:12:04.061Z,3768.00
2022-07-30T06:13:04.071Z,3808.00
2022-07-30T06:14:04.011Z,3828.00
2022-07-30T06:15:04.007Z,3832.00
2022-07-30T06:16:04.042Z,3824.00
2022-07-30T06:17:04.266Z,3832.00
2022-07-30T06:18:03.988Z,3844.00
2022-07-30T06:19:03.955Z,3852.00
2022-07-30T06:20:03.940Z,3880.00
2022-07-30T06:21:03.928Z,3928.00
2022-07-30T06:22:06.742Z,3976.00
2022-07-30T06:23:03.916Z,4016.00
2022-07-30T06:24:03.940Z,4068.00
2022-07-30T06:25:03.881Z,4096.00
2022-07-30T06:26:03.870Z,4108.00
2022-07-30T06:27:04.204Z,4100.00
2022-07-30T06:28:15.673Z,4100.00
2022-07-30T06:29:04.899Z,4096.00
2022-07-30T06:30:03.826Z,4140.00
2022-07-30T06:31:03.882Z,4196.00
2022-07-30T06:32:03.803Z,4256.00
2022-07-30T06:33:03.792Z,4292.00
2022-07-30T06:34:03.776Z,4276.00
2022-07-30T06:35:04.984Z,4360.00
2022-07-30T06:36:03.774Z,4416.00
2022-07-30T06:37:04.002Z,4472.00
2022-07-30T06:38:07.300Z,4496.00
2022-07-30T06:39:03.732Z,4532.00
2022-07-30T06:40:03.720Z,4588.00
2022-07-30T06:41:04.617Z,4620.00
2022-07-30T06:42:03.684Z,4648.00
2022-07-30T06:43:03.675Z,4684.00
2022-07-30T06:44:03.665Z,4716.00
2022-07-30T06:45:03.656Z,4752.00
2022-07-30T06:46:03.756Z,4736.00
2022-07-30T06:47:07.933Z,4772.00
2022-07-30T06:48:03.628Z,4760.00
2022-07-30T06:49:03.681Z,4748.00
2022-07-30T06:50:03.607Z,4604.00
2022-07-30T06:51:03.599Z,3800.00
2022-07-30T06:52:03.606Z,3684.00
2022-07-30T06:53:03.556Z,3412.00
2022-07-30T06:54:03.559Z,3644.00
2022-07-30T06:55:03.551Z,3480.00
2022-07-30T06:56:03.538Z,3736.00
2022-07-30T06:57:03.825Z,3852.00
2022-07-30T06:58:03.546Z,3968.00
2022-07-30T06:59:03.552Z,3536.00
2022-07-30T07:00:03.488Z,3560.00
2022-07-30T07:01:03.563Z,3548.00
2022-07-30T07:02:04.459Z,4120.00
2022-07-30T07:03:03.500Z,4464.00
2022-07-30T07:04:03.531Z,4636.00
2022-07-30T07:05:03.440Z,4792.00
2022-07-30T07:06:03.421Z,4780.00
2022-07-30T07:07:03.402Z,4780.00
2022-07-30T07:08:04.430Z,4784.00
2022-07-30T07:09:03.383Z,4828.00
2022-07-30T07:10:03.361Z,4852.00
2022-07-30T07:11:03.357Z,4880.00
2022-07-30T07:12:03.370Z,4900.00
2022-07-30T07:13:03.332Z,4916.00
2022-07-30T07:14:04.879Z,4924.00
2022-07-30T07:15:03.306Z,4916.00
2022-07-30T07:16:03.304Z,4928.00
2022-07-30T07:17:03.468Z,4948.00
2022-07-30T07:18:03.274Z,4948.00
2022-07-30T07:19:03.279Z,4952.00
2022-07-30T07:20:03.291Z,4948.00
2022-07-30T07:21:03.282Z,4944.00
2022-07-30T07:22:03.231Z,4944.00
2022-07-30T07:23:09.503Z,4904.00
2022-07-30T07:24:04.214Z,4856.00
2022-07-30T07:25:03.203Z,4884.00
2022-07-30T07:26:03.224Z,4920.00
2022-07-30T07:27:03.586Z,4564.00
2022-07-30T07:28:12.258Z,4940.00
2022-07-30T07:29:05.412Z,4996.00
2022-07-30T07:30:06.072Z,4084.00
2022-07-30T07:31:03.192Z,4028.00
2022-07-30T07:32:06.706Z,3888.00
2022-07-30T07:33:03.108Z,4208.00
2022-07-30T07:34:03.104Z,4724.00
2022-07-30T07:35:03.087Z,5068.00
2022-07-30T07:36:03.247Z,5196.00
2022-07-30T07:37:03.383Z,5268.00
2022-07-30T07:38:03.108Z,5280.00
2022-07-30T07:39:03.049Z,5292.00
2022-07-30T07:40:03.020Z,5284.00
2022-07-30T07:41:03.030Z,5264.00
2022-07-30T07:42:03.021Z,5216.00
2022-07-30T07:43:03.013Z,5180.00
2022-07-30T07:44:02.981Z,5208.00
2022-07-30T07:45:02.960Z,5224.00
2022-07-30T07:46:03.039Z,5260.00
2022-07-30T07:47:03.213Z,5256.00
2022-07-30T07:48:03.243Z,5260.00
2022-07-30T07:49:03.010Z,5248.00
2022-07-30T07:50:02.951Z,5236.00
2022-07-30T07:51:02.941Z,5252.00
2022-07-30T07:52:03.894Z,5260.00
2022-07-30T07:53:02.864Z,5288.00
2022-07-30T07:54:20.575Z,5300.00
2022-07-30T07:55:03.866Z,5292.00
2022-07-30T07:56:02.857Z,5304.00
2022-07-30T07:57:04.269Z,5312.00
2022-07-30T07:58:02.816Z,5296.00
2022-07-30T07:59:02.796Z,5324.00
2022-07-30T08:00:02.819Z,5332.00
2022-07-30T08:01:02.859Z,5364.00
2022-07-30T08:02:03.912Z,5384.00
2022-07-30T08:03:02.767Z,5412.00
2022-07-30T08:04:02.745Z,5432.00
2022-07-30T08:05:03.770Z,5456.00
2022-07-30T08:06:06.252Z,5488.00
2022-07-30T08:07:03.309Z,5516.00
2022-07-30T08:08:02.729Z,5524.00
2022-07-30T08:09:02.692Z,5560.00
2022-07-30T08:10:02.708Z,5592.00
2022-07-30T08:11:02.690Z,5616.00
2022-07-30T08:12:02.660Z,5636.00
2022-07-30T08:13:02.666Z,5664.00
2022-07-30T08:14:02.639Z,5688.00
2022-07-30T08:15:02.630Z,5704.00
2022-07-30T08:16:02.610Z,5720.00
2022-07-30T08:17:03.150Z,5700.00
2022-07-30T08:18:02.593Z,5700.00
2022-07-30T08:19:02.591Z,5728.00
2022-07-30T08:20:02.580Z,5740.00
2022-07-30T08:21:02.552Z,5720.00
2022-07-30T08:22:02.544Z,5768.00
2022-07-30T08:23:02.543Z,5772.00
2022-07-30T08:24:02.522Z,5812.00
2022-07-30T08:25:03.776Z,5832.00
2022-07-30T08:26:02.495Z,5840.00
2022-07-30T08:27:02.738Z,5856.00
2022-07-30T08:28:02.513Z,5892.00
2022-07-30T08:29:02.465Z,5900.00
2022-07-30T08:30:02.454Z,5912.00
2022-07-30T08:31:02.758Z,5932.00
2022-07-30T08:32:02.706Z,5900.00
2022-07-30T08:33:02.424Z,5924.00
2022-07-30T08:34:02.458Z,5880.00
2022-07-30T08:35:02.395Z,5816.00
2022-07-30T08:36:03.123Z,5704.00
2022-07-30T08:37:02.381Z,5628.00
2022-07-30T08:38:02.368Z,5568.00
2022-07-30T08:39:03.351Z,5520.00
2022-07-30T08:40:03.599Z,5512.00
2022-07-30T08:41:02.325Z,5508.00
2022-07-30T08:42:02.527Z,5520.00
2022-07-30T08:43:02.315Z,5536.00
2022-07-30T08:44:02.305Z,5520.00
2022-07-30T08:45:02.344Z,5548.00
2022-07-30T08:46:02.309Z,5568.00
2022-07-30T08:47:02.459Z,5620.00
2022-07-30T08:48:02.269Z,5676.00
2022-07-30T08:49:06.458Z,5776.00
2022-07-30T08:50:03.233Z,5836.00
2022-07-30T08:51:02.216Z,5880.00
2022-07-30T08:52:02.541Z,5924.00
2022-07-30T08:53:02.201Z,5908.00
2022-07-30T08:54:02.196Z,5944.00
2022-07-30T08:55:02.164Z,5936.00
2022-07-30T08:56:02.163Z,5892.00
2022-07-30T08:57:02.185Z,5964.00
2022-07-30T08:58:02.144Z,5988.00
2022-07-30T08:59:02.130Z,6028.00
2022-07-30T09:00:02.226Z,5988.00
2022-07-30T09:01:02.108Z,5944.00
2022-07-30T09:02:02.281Z,5968.00
2022-07-30T09:03:02.094Z,5984.00
2022-07-30T09:04:02.195Z,5976.00
2022-07-30T09:05:02.070Z,5956.00
2022-07-30T09:06:02.045Z,5984.00
2022-07-30T09:07:02.276Z,6032.00
2022-07-30T09:08:03.296Z,6064.00
2022-07-30T09:09:02.016Z,6128.00
2022-07-30T09:10:01.999Z,6160.00
2022-07-30T09:11:01.995Z,6180.00
2022-07-30T09:12:02.244Z,6228.00
2022-07-30T09:13:01.966Z,6288.00
2022-07-30T09:14:04.813Z,6252.00
2022-07-30T09:15:01.977Z,6376.00
2022-07-30T09:16:02.061Z,6524.00
2022-07-30T09:17:02.084Z,6600.00
2022-07-30T09:18:01.959Z,6688.00
2022-07-30T09:19:01.915Z,6664.00
2022-07-30T09:20:01.951Z,6564.00
2022-07-30T09:21:01.869Z,6648.00
2022-07-30T09:22:01.869Z,6736.00
2022-07-30T09:23:01.869Z,6760.00
2022-07-30T09:24:01.838Z,6796.00
2022-07-30T09:25:01.830Z,6732.00
2022-07-30T09:26:01.863Z,6668.00
2022-07-30T09:27:02.041Z,6724.00
2022-07-30T09:28:01.801Z,5848.00
2022-07-30T09:29:01.791Z,6684.00
2022-07-30T09:30:01.771Z,6704.00
2022-07-30T09:31:01.767Z,6560.00
2022-07-30T09:32:02.045Z,6444.00
2022-07-30T09:33:01.761Z,6488.00
2022-07-30T09:34:01.727Z,6544.00
2022-07-30T09:35:01.736Z,6532.00
2022-07-30T09:36:01.703Z,6512.00
2022-07-30T09:37:01.728Z,6508.00
2022-07-30T09:38:06.014Z,6452.00
2022-07-30T09:39:01.682Z,6492.00
2022-07-30T09:40:01.680Z,6488.00
2022-07-30T09:41:08.124Z,6328.00
2022-07-30T09:42:03.155Z,6508.00
2022-07-30T09:43:01.635Z,6528.00
2022-07-30T09:44:01.624Z,6676.00
2022-07-30T09:45:01.621Z,6768.00
2022-07-30T09:46:01.625Z,6832.00
2022-07-30T09:47:01.586Z,6984.00
2022-07-30T09:48:01.630Z,6148.00
2022-07-30T09:49:01.635Z,5136.00
2022-07-30T09:50:07.046Z,5408.00
2022-07-30T09:51:02.547Z,7632.00
2022-07-30T09:52:01.584Z,7772.00
2022-07-30T09:53:01.543Z,7872.00
2022-07-30T09:54:01.593Z,7840.00
2022-07-30T09:55:01.513Z,7996.00
2022-07-30T09:56:01.490Z,7924.00
2022-07-30T09:57:01.480Z,7872.00
2022-07-30T09:58:02.919Z,7932.00
2022-07-30T09:59:01.505Z,7988.00
2022-07-30T10:00:01.772Z,7932.00
2022-07-30T10:01:01.433Z,7704.00
2022-07-30T10:02:04.186Z,7548.00
2022-07-30T10:03:12.623Z,7504.00
2022-07-30T10:04:02.391Z,5456.00
2022-07-30T10:05:01.391Z,7156.00
2022-07-30T10:06:01.429Z,5076.00
2022-07-30T10:07:01.373Z,4832.00
2022-07-30T10:08:05.488Z,4628.00
2022-07-30T10:09:02.342Z,4580.00
2022-07-30T10:10:02.367Z,4580.00
2022-07-30T10:11:05.155Z,4504.00
2022-07-30T10:12:02.775Z,4308.00
2022-07-30T10:13:01.344Z,4136.00
2022-07-30T10:14:01.304Z,4040.00
2022-07-30T10:15:01.278Z,4016.00
2022-07-30T10:16:01.265Z,4020.00
2022-07-30T10:17:01.256Z,4028.00
2022-07-30T10:18:01.272Z,4060.00
2022-07-30T10:19:01.278Z,4032.00
2022-07-30T10:20:02.850Z,3940.00
2022-07-30T10:21:05.504Z,3812.00
2022-07-30T10:22:01.446Z,3664.00
2022-07-30T10:23:07.931Z,3544.00
2022-07-30T10:24:02.228Z,3436.00
2022-07-30T10:25:01.179Z,3444.00
2022-07-30T10:26:03.619Z,3376.00
2022-07-30T10:27:01.286Z,3452.00
2022-07-30T10:28:03.122Z,3548.00
2022-07-30T10:29:01.110Z,3692.00
2022-07-30T10:30:03.580Z,3808.00
2022-07-30T10:31:01.111Z,3868.00
2022-07-30T10:32:02.090Z,3904.00
2022-07-30T10:33:01.518Z,3976.00
2022-07-30T10:34:01.060Z,4100.00
2022-07-30T10:35:01.073Z,4252.00
2022-07-30T10:36:02.697Z,4400.00
2022-07-30T10:37:01.908Z,4540.00
2022-07-30T10:38:02.030Z,4656.00
2022-07-30T10:39:01.018Z,4732.00
2022-07-30T10:40:01.029Z,4804.00
2022-07-30T10:41:00.980Z,4884.00
2022-07-30T10:42:00.984Z,4988.00
2022-07-30T10:43:01.001Z,5108.00
2022-07-30T10:44:00.948Z,5252.00
2022-07-30T10:45:00.936Z,5324.00
2022-07-30T10:46:00.945Z,5444.00
2022-07-30T10:47:01.081Z,5624.00
2022-07-30T10:48:01.910Z,5644.00
2022-07-30T10:49:00.925Z,7380.00
2022-07-30T10:50:00.897Z,6412.00
2022-07-30T10:51:01.174Z,7008.00
2022-07-30T10:52:00.880Z,5772.00
2022-07-30T10:53:00.866Z,5976.00
2022-07-30T10:54:00.858Z,7236.00
2022-07-30T10:55:00.826Z,7256.00
2022-07-30T10:56:01.005Z,6588.00
2022-07-30T10:57:00.943Z,5524.00
2022-07-30T10:58:00.798Z,5480.00
2022-07-30T10:59:00.798Z,5188.00
2022-07-30T11:00:01.118Z,5120.00
2022-07-30T11:01:00.783Z,5128.00
2022-07-30T11:02:00.940Z,5124.00
2022-07-30T11:03:00.746Z,5488.00
2022-07-30T11:04:01.720Z,4884.00
2022-07-30T11:05:00.740Z,4760.00
2022-07-30T11:06:00.701Z,4704.00
2022-07-30T11:07:00.691Z,4740.00
2022-07-30T11:08:00.692Z,4856.00
2022-07-30T11:09:00.693Z,5072.00
2022-07-30T11:10:09.171Z,5256.00
2022-07-30T11:11:19.669Z,5400.00
2022-07-30T11:12:06.433Z,6596.00
2022-07-30T11:13:01.647Z,6952.00
2022-07-30T11:14:00.623Z,5768.00
2022-07-30T11:15:07.254Z,7080.00
2022-07-30T11:16:01.594Z,7040.00
2022-07-30T11:17:00.589Z,6876.00
2022-07-30T11:18:00.638Z,6712.00
2022-07-30T11:19:27.299Z,5440.00
2022-07-30T11:20:01.645Z,4788.00
2022-07-30T11:21:00.556Z,4700.00
2022-07-30T11:22:01.707Z,4576.00
2022-07-30T11:23:00.516Z,4572.00
2022-07-30T11:24:00.533Z,4628.00
2022-07-30T11:25:00.553Z,4612.00
2022-07-30T11:26:01.427Z,6052.00
2022-07-30T11:27:00.507Z,4600.00
2022-07-30T11:28:01.418Z,5184.00
2022-07-30T11:29:00.467Z,6056.00
2022-07-30T11:30:00.441Z,5860.00
2022-07-30T11:31:00.437Z,4304.00
2022-07-30T11:32:06.581Z,5612.00
2022-07-30T11:33:01.399Z,5620.00
2022-07-30T11:34:00.462Z,5880.00
2022-07-30T11:35:00.436Z,5868.00
2022-07-30T11:36:01.306Z,5592.00
2022-07-30T11:37:00.370Z,6148.00
2022-07-30T11:38:02.116Z,6192.00
2022-07-30T11:39:05.252Z,6272.00
2022-07-30T11:40:01.361Z,6292.00
2022-07-30T11:41:01.260Z,6328.00
2022-07-30T11:42:00.665Z,6372.00
2022-07-30T11:43:01.254Z,6368.00
2022-07-30T11:44:00.316Z,6424.00
2022-07-30T11:45:04.042Z,6416.00
2022-07-30T11:46:01.234Z,6472.00
2022-07-30T11:47:00.287Z,6540.00
2022-07-30T11:48:00.345Z,6512.00
2022-07-30T11:49:00.429Z,6500.00
2022-07-30T11:50:00.338Z,6500.00
2022-07-30T11:51:03.832Z,6604.00
2022-07-30T11:52:01.418Z,6740.00
2022-07-30T11:53:00.336Z,6808.00
2022-07-30T11:54:00.197Z,6892.00
2022-07-30T11:55:00.188Z,7044.00
2022-07-30T11:56:00.149Z,7072.00
2022-07-30T11:57:04.351Z,7096.00
2022-07-30T11:58:00.159Z,7044.00
2022-07-30T11:59:00.128Z,7100.00
2022-07-30T12:00:00.123Z,7284.00
2022-07-30T12:01:00.099Z,7128.00
2022-07-30T12:02:00.568Z,7084.00
2022-07-30T12:03:03.842Z,7004.00
2022-07-30T12:04:00.064Z,7152.00
2022-07-30T12:05:00.061Z,6944.00
2022-07-30T12:06:00.055Z,6448.00
2022-07-30T12:07:00.467Z,7076.00
2022-07-30T12:08:00.021Z,5676.00
2022-07-30T12:09:00.037Z,5116.00
2022-07-30T12:10:00.034Z,7052.00
2022-07-30T12:10:59.986Z,7220.00
2022-07-30T12:12:00.865Z,5288.00
2022-07-30T12:12:59.962Z,7364.00
2022-07-30T12:13:59.950Z,7288.00
2022-07-30T12:15:01.956Z,5508.00
2022-07-30T12:15:59.938Z,7512.00
2022-07-30T12:17:00.262Z,7092.00
2022-07-30T12:18:24.131Z,7688.00
2022-07-30T12:19:00.894Z,7804.00
2022-07-30T12:19:59.905Z,7752.00
2022-07-30T12:20:59.869Z,7632.00
2022-07-30T12:21:59.865Z,5492.00
2022-07-30T12:22:59.883Z,7440.00
2022-07-30T12:23:59.827Z,7668.00
2022-07-30T12:24:59.835Z,7660.00
2022-07-30T12:25:59.837Z,7804.00
2022-07-30T12:27:00.274Z,7788.00